createdAt,value
2019-03-01T00:01:50.695Z,7.80
2019-03-01T00:04:43.252Z,7.90
2019-03-01T00:07:50.117Z,7.90
2019-03-01T00:10:35.256Z,7.80
2019-03-01T00:13:25.009Z,7.80
2019-03-01T00:16:07.297Z,7.80
2019-03-01T00:19:00.264Z,7.70
2019-03-01T00:21:36.060Z,7.70
2019-03-01T00:24:14.152Z,7.70
2019-03-01T00:27:07.273Z,7.50
2019-03-01T00:29:47.384Z,7.50
2019-03-01T00:32:26.264Z,7.40
2019-03-01T00:34:59.367Z,7.40
2019-03-01T00:37:32.683Z,7.30
2019-03-01T00:40:17.787Z,7.40
2019-03-01T00:42:53.653Z,7.30
2019-03-01T00:45:23.622Z,7.40
2019-03-01T00:47:54.537Z,7.40
2019-03-01T00:50:24.490Z,7.40
2019-03-01T00:52:54.446Z,7.30
2019-03-01T00:55:24.500Z,7.30
2019-03-01T00:57:54.539Z,7.30
2019-03-01T01:00:30.512Z,7.40
2019-03-01T01:03:00.839Z,7.40
2019-03-01T01:05:30.952Z,7.40
2019-03-01T01:08:01.020Z,7.40
2019-03-01T01:10:40.121Z,7.40
2019-03-01T01:13:10.098Z,7.40
2019-03-01T01:15:40.117Z,7.30
2019-03-01T01:18:10.108Z,7.30
2019-03-01T01:20:40.163Z,7.30
2019-03-01T01:23:10.194Z,7.30
2019-03-01T01:25:40.318Z,7.20
2019-03-01T01:28:10.248Z,7.20
2019-03-01T01:30:40.249Z,7.10
2019-03-01T01:33:10.358Z,7.10
2019-03-01T01:35:40.456Z,7.20
2019-03-01T01:38:10.519Z,7.20
2019-03-01T01:40:40.660Z,7.20
2019-03-01T01:43:10.586Z,7.10
2019-03-01T01:45:41.608Z,7.10
2019-03-01T01:48:12.488Z,7.10
2019-03-01T01:50:42.498Z,7.10
2019-03-01T01:53:12.503Z,7.10
2019-03-01T01:55:42.453Z,7.00
2019-03-01T01:58:12.459Z,6.90
2019-03-01T02:00:42.544Z,6.90
2019-03-01T02:03:12.715Z,6.70
2019-03-01T02:05:42.675Z,6.70
2019-03-01T02:08:12.893Z,6.60
2019-03-01T02:10:42.851Z,6.50
2019-03-01T02:13:12.824Z,6.50
2019-03-01T02:15:43.116Z,6.50
2019-03-01T02:18:13.199Z,6.40
2019-03-01T02:20:43.330Z,6.40
2019-03-01T02:23:13.347Z,6.30
2019-03-01T02:25:43.297Z,6.30
2019-03-01T02:28:13.280Z,6.30
2019-03-01T02:30:46.664Z,5.90
2019-03-01T02:33:17.646Z,6.10
2019-03-01T02:35:47.652Z,6.00
2019-03-01T02:38:17.678Z,5.90
2019-03-01T02:40:47.787Z,5.90
2019-03-01T02:43:18.117Z,5.90
2019-03-01T02:45:48.070Z,5.90
2019-03-01T02:48:18.041Z,5.90
2019-03-01T02:50:48.447Z,5.90
2019-03-01T02:53:18.394Z,5.80
2019-03-01T02:55:48.405Z,5.70
2019-03-01T02:58:18.398Z,5.70
2019-03-01T03:00:48.553Z,5.70
2019-03-01T03:03:19.789Z,5.60
2019-03-01T03:05:57.759Z,5.60
2019-03-01T03:08:27.896Z,5.60
2019-03-01T03:10:57.850Z,5.60
2019-03-01T03:13:27.907Z,5.50
2019-03-01T03:15:58.368Z,5.40
2019-03-01T03:18:28.448Z,5.40
2019-03-01T03:20:58.484Z,5.30
2019-03-01T03:23:28.537Z,5.30
2019-03-01T03:25:58.477Z,5.30
2019-03-01T03:28:28.482Z,5.20
2019-03-01T03:30:58.418Z,5.10
2019-03-01T03:33:28.378Z,5.10
2019-03-01T03:35:58.374Z,5.00
2019-03-01T03:38:28.383Z,4.90
2019-03-01T03:40:58.513Z,4.90
2019-03-01T03:43:28.585Z,4.90
2019-03-01T03:45:58.572Z,4.80
2019-03-01T03:48:29.503Z,4.70
2019-03-01T03:50:59.427Z,4.80
2019-03-01T03:53:29.387Z,4.70
2019-03-01T03:55:59.379Z,4.60
2019-03-01T03:58:30.596Z,4.60
2019-03-01T04:01:00.686Z,4.50
2019-03-01T04:03:30.640Z,4.50
2019-03-01T04:06:00.707Z,4.50
2019-03-01T04:08:30.911Z,4.40
2019-03-01T04:11:00.924Z,4.40
2019-03-01T04:13:31.302Z,4.40
2019-03-01T04:16:01.355Z,4.40
2019-03-01T04:18:31.461Z,4.40
2019-03-01T04:21:01.498Z,4.40
2019-03-01T04:23:31.576Z,4.30
2019-03-01T04:26:01.574Z,4.30
2019-03-01T04:28:31.892Z,4.20
2019-03-01T04:31:03.673Z,4.20
2019-03-01T04:33:34.196Z,4.20
2019-03-01T04:36:04.255Z,4.20
2019-03-01T04:38:34.228Z,4.20
2019-03-01T04:41:04.279Z,4.20
2019-03-01T04:43:35.216Z,4.10
2019-03-01T04:46:05.284Z,4.10
2019-03-01T04:48:36.387Z,4.00
2019-03-01T04:51:06.785Z,4.00
2019-03-01T04:53:36.834Z,4.00
2019-03-01T04:56:07.507Z,4.00
2019-03-01T04:58:37.623Z,4.00
2019-03-01T05:01:08.640Z,3.90
2019-03-01T05:03:38.577Z,3.90
2019-03-01T05:06:09.340Z,3.90
2019-03-01T05:08:39.889Z,3.90
2019-03-01T05:11:10.307Z,3.90
2019-03-01T05:13:40.726Z,3.90
2019-03-01T05:16:10.897Z,3.90
2019-03-01T05:18:40.840Z,3.80
2019-03-01T05:21:11.036Z,3.80
2019-03-01T05:23:41.102Z,3.90
2019-03-01T05:26:11.067Z,3.80
2019-03-01T05:28:41.027Z,3.80
2019-03-01T05:31:12.582Z,3.80
2019-03-01T05:33:43.006Z,3.80
2019-03-01T05:36:13.088Z,3.70
2019-03-01T05:38:43.162Z,3.70
2019-03-01T05:41:13.481Z,3.60
2019-03-01T05:43:43.449Z,3.60
2019-03-01T05:46:13.415Z,3.70
2019-03-01T05:48:44.251Z,3.70
2019-03-01T05:51:14.254Z,3.60
2019-03-01T05:53:44.214Z,3.60
2019-03-01T05:56:14.168Z,3.60
2019-03-01T05:58:44.561Z,3.60
2019-03-01T06:01:20.600Z,3.60
2019-03-01T06:03:59.755Z,3.60
2019-03-01T06:06:35.522Z,3.60
2019-03-01T06:09:24.643Z,3.60
2019-03-01T06:12:01.021Z,3.60
2019-03-01T06:14:49.154Z,3.60
2019-03-01T06:17:28.171Z,3.70
2019-03-01T06:20:25.573Z,3.80
2019-03-01T06:23:01.592Z,3.80
2019-03-01T06:25:51.364Z,4.00
2019-03-01T06:28:40.771Z,4.10
2019-03-01T06:31:28.973Z,4.20
2019-03-01T06:34:07.895Z,4.30
2019-03-01T06:36:47.442Z,4.40
2019-03-01T06:39:37.596Z,4.50
2019-03-01T06:42:19.872Z,4.60
2019-03-01T06:45:25.172Z,4.60
2019-03-01T06:47:55.576Z,4.60
2019-03-01T06:50:29.983Z,4.80
2019-03-01T06:52:59.985Z,4.90
2019-03-01T06:55:34.270Z,5.00
2019-03-01T07:00:36.446Z,4.70
2019-03-01T07:03:06.620Z,4.70
2019-03-01T07:08:06.551Z,4.80
2019-03-01T07:10:36.484Z,5.10
2019-03-01T07:13:06.475Z,5.20
2019-03-01T07:15:36.552Z,5.10
2019-03-01T07:18:06.741Z,5.20
2019-03-01T07:20:36.672Z,5.30
2019-03-01T07:23:06.753Z,5.20
2019-03-01T07:25:37.106Z,5.00
2019-03-01T07:28:07.257Z,4.90
2019-03-01T07:30:37.224Z,4.80
2019-03-01T07:33:07.258Z,4.80
2019-03-01T07:35:37.530Z,4.90
2019-03-01T07:38:07.803Z,5.00
2019-03-01T07:40:37.871Z,5.00
2019-03-01T07:43:07.968Z,5.10
2019-03-01T07:45:37.967Z,5.20
2019-03-01T07:48:08.023Z,5.50
2019-03-01T07:50:38.323Z,5.30
2019-03-01T07:53:09.590Z,5.40
2019-03-01T07:55:39.632Z,5.90
2019-03-01T07:58:13.900Z,5.40
2019-03-01T08:00:53.159Z,5.60
2019-03-01T08:03:19.814Z,5.50
2019-03-01T08:05:49.877Z,5.40
2019-03-01T08:08:19.849Z,5.60
2019-03-01T08:10:49.856Z,5.80
2019-03-01T08:13:19.863Z,6.30
2019-03-01T08:15:49.955Z,6.40
2019-03-01T08:18:20.259Z,6.50
2019-03-01T08:20:50.421Z,6.30
2019-03-01T08:23:20.455Z,6.10
2019-03-01T08:25:50.469Z,6.30
2019-03-01T08:28:22.031Z,6.20
2019-03-01T08:30:53.336Z,5.90
2019-03-01T08:33:23.303Z,6.60
2019-03-01T08:35:53.484Z,6.80
2019-03-01T08:38:25.493Z,6.50
2019-03-01T08:40:56.789Z,6.60
2019-03-01T08:43:26.792Z,6.70
2019-03-01T08:45:57.156Z,6.80
2019-03-01T08:48:27.164Z,7.00
2019-03-01T08:50:57.105Z,7.50
2019-03-01T08:53:27.237Z,7.20
2019-03-01T08:55:58.139Z,7.30
2019-03-01T08:58:28.319Z,7.40
2019-03-01T09:00:59.901Z,7.50
2019-03-01T09:03:33.292Z,7.70
2019-03-01T09:06:03.256Z,8.30
2019-03-01T09:08:33.433Z,7.90
2019-03-01T09:11:05.533Z,7.90
2019-03-01T09:13:36.183Z,7.70
2019-03-01T09:16:06.637Z,7.10
2019-03-01T09:18:36.577Z,6.80
2019-03-01T09:21:12.379Z,7.30
2019-03-01T09:23:39.773Z,7.80
2019-03-01T09:26:09.805Z,7.80
2019-03-01T09:28:39.946Z,7.50
2019-03-01T09:31:10.004Z,7.80
2019-03-01T09:33:39.950Z,7.50
2019-03-01T09:36:21.296Z,7.20
2019-03-01T09:38:50.662Z,7.30
2019-03-01T09:41:20.639Z,8.00
2019-03-01T09:43:50.924Z,8.30
2019-03-01T09:46:24.038Z,8.20
2019-03-01T09:48:52.669Z,8.30
2019-03-01T09:51:22.685Z,8.90
2019-03-01T09:53:52.942Z,9.10
2019-03-01T09:56:24.495Z,8.90
2019-03-01T09:58:54.491Z,9.20
2019-03-01T10:01:24.626Z,9.30
2019-03-01T10:03:56.243Z,9.30
2019-03-01T10:06:27.673Z,9.20
2019-03-01T10:08:57.868Z,9.30
2019-03-01T10:11:28.065Z,11.30
2019-03-01T10:13:58.342Z,13.70
2019-03-01T10:16:28.335Z,14.40
2019-03-01T10:18:58.282Z,14.50
2019-03-01T10:21:28.341Z,14.30
2019-03-01T10:28:57.582Z,15.90
2019-03-01T10:31:27.583Z,16.90
